sensor_id;sensor_type;location;lat;lon;timestamp;pressure;altitude;pressure_sealevel;temperature;humidity
21594;BME280;10959;51.328;7.322;2023-06-04T09:18:52;73528.25;;;-147.06;32.14
21594;BME280;10959;51.328;7.322;2023-06-04T09:21:19;73415.59;;;-147.06;31.15
21594;BME280;10959;51.328;7.322;2023-06-04T09:23:46;73360.31;;;-147.06;30.14
21594;BME280;10959;51.328;7.322;2023-06-04T09:26:14;73329.59;;;-147.06;29.04
21594;BME280;10959;51.328;7.322;2023-06-04T09:28:41;73311.16;;;-147.06;29.28
21594;BME280;10959;51.328;7.322;2023-06-04T09:31:08;73323.44;;;-147.06;28.51
21594;BME280;10959;51.328;7.322;2023-06-04T09:33:42;73315.25;;;-147.06;29.21
21594;BME280;10959;51.328;7.322;2023-06-04T09:36:10;73286.56;;;-147.06;28.48
21594;BME280;10959;51.328;7.322;2023-06-04T09:38:37;73227.16;;;-147.06;29.53
21594;BME280;10959;51.328;7.322;2023-06-04T09:41:04;73216.94;;;-147.06;28.71
21594;BME280;10959;51.328;7.322;2023-06-04T09:43:31;73184.16;;;-147.06;28.56
21594;BME280;10959;51.328;7.322;2023-06-04T09:46:08;73163.69;;;-147.06;27.95
21594;BME280;10959;51.328;7.322;2023-06-04T09:48:35;73171.88;;;-147.06;27.83
21594;BME280;10959;51.328;7.322;2023-06-04T09:51:06;73153.44;;;-147.06;27.97
21594;BME280;10959;51.328;7.322;2023-06-04T09:53:35;73106.34;;;-147.06;27.81
21594;BME280;10959;51.328;7.322;2023-06-04T09:56:03;73087.91;;;-147.06;27.57
21594;BME280;10959;51.328;7.322;2023-06-04T09:58:30;73100.19;;;-147.06;27.09
21594;BME280;10959;51.328;7.322;2023-06-04T10:00:57;73092.00;;;-147.06;27.05
21594;BME280;10959;51.328;7.322;2023-06-04T10:03:24;73077.66;;;-147.06;26.65
21594;BME280;10959;51.328;7.322;2023-06-04T10:05:53;73077.66;;;-147.06;27.42
21594;BME280;10959;51.328;7.322;2023-06-04T10:08:21;73040.78;;;-147.06;26.82
21594;BME280;10959;51.328;7.322;2023-06-04T10:10:50;73081.75;;;-147.06;25.67
21594;BME280;10959;51.328;7.322;2023-06-04T10:13:18;73061.28;;;-147.06;26.40
21594;BME280;10959;51.328;7.322;2023-06-04T10:15:46;73044.88;;;-147.06;26.60
21594;BME280;10959;51.328;7.322;2023-06-04T10:18:13;73024.41;;;-147.06;26.94
21594;BME280;10959;51.328;7.322;2023-06-04T10:20:40;73065.38;;;-147.06;25.99
21594;BME280;10959;51.328;7.322;2023-06-04T10:23:07;73038.75;;;-147.06;26.69
21594;BME280;10959;51.328;7.322;2023-06-04T10:25:34;73026.44;;;-147.06;26.60
21594;BME280;10959;51.328;7.322;2023-06-04T10:28:03;73024.41;;;-147.06;26.51
21594;BME280;10959;51.328;7.322;2023-06-04T10:30:30;72999.84;;;-147.06;26.81
21594;BME280;10959;51.328;7.322;2023-06-04T10:32:57;73098.13;;;-147.06;26.43
21594;BME280;10959;51.328;7.322;2023-06-04T10:35:31;73087.91;;;-147.06;26.08
21594;BME280;10959;51.328;7.322;2023-06-04T10:38:07;73077.66;;;-147.06;26.39
21594;BME280;10959;51.328;7.322;2023-06-04T10:40:34;73069.47;;;-147.06;26.31
21594;BME280;10959;51.328;7.322;2023-06-04T10:43:06;73108.38;;;-147.06;26.37
21594;BME280;10959;51.328;7.322;2023-06-04T10:45:33;73122.72;;;-147.06;26.60
21594;BME280;10959;51.328;7.322;2023-06-04T10:48:00;73081.75;;;-147.06;27.47
21594;BME280;10959;51.328;7.322;2023-06-04T10:50:27;73020.31;;;-147.06;28.01
21594;BME280;10959;51.328;7.322;2023-06-04T10:52:55;72973.22;;;-147.06;26.90
21594;BME280;10959;51.328;7.322;2023-06-04T10:55:23;72950.69;;;-147.06;26.69
21594;BME280;10959;51.328;7.322;2023-06-04T10:57:53;72971.16;;;-147.06;26.63
21594;BME280;10959;51.328;7.322;2023-06-04T11:00:21;72987.53;;;-147.06;27.03
21594;BME280;10959;51.328;7.322;2023-06-04T11:02:52;72954.78;;;-147.06;26.74
21594;BME280;10959;51.328;7.322;2023-06-04T11:05:20;72975.25;;;-147.06;25.90
21594;BME280;10959;51.328;7.322;2023-06-04T11:07:48;72954.78;;;-147.06;26.83
21594;BME280;10959;51.328;7.322;2023-06-04T11:10:16;73012.13;;;-147.06;26.41
21594;BME280;10959;51.328;7.322;2023-06-04T11:12:44;73026.44;;;-147.06;26.62
21594;BME280;10959;51.328;7.322;2023-06-04T11:15:11;73008.03;;;-147.06;26.38
21594;BME280;10959;51.328;7.322;2023-06-04T11:17:48;73026.44;;;-147.06;27.28
21594;BME280;10959;51.328;7.322;2023-06-04T11:20:16;72973.22;;;-147.06;26.46
21594;BME280;10959;51.328;7.322;2023-06-04T11:22:42;72962.97;;;-147.06;26.50
21594;BME280;10959;51.328;7.322;2023-06-04T11:25:10;72956.81;;;-147.06;26.45
21594;BME280;10959;51.328;7.322;2023-06-04T11:27:36;73073.56;;;-147.06;26.58
21594;BME280;10959;51.328;7.322;2023-06-04T11:30:04;73089.94;;;-147.06;26.83
21594;BME280;10959;51.328;7.322;2023-06-04T11:32:32;73098.13;;;-147.06;26.61
21594;BME280;10959;51.328;7.322;2023-06-04T11:35:04;73053.09;;;-147.06;27.29
21594;BME280;10959;51.328;7.322;2023-06-04T11:37:31;72975.25;;;-147.06;26.65
21594;BME280;10959;51.328;7.322;2023-06-04T11:39:58;72938.38;;;-147.06;26.25
21594;BME280;10959;51.328;7.322;2023-06-04T11:42:26;72940.44;;;-147.06;26.36
21594;BME280;10959;51.328;7.322;2023-06-04T11:44:55;72926.09;;;-147.06;26.57
21594;BME280;10959;51.328;7.322;2023-06-04T11:47:22;72911.75;;;-147.06;26.56
21594;BME280;10959;51.328;7.322;2023-06-04T11:49:54;72962.97;;;-147.06;26.79
21594;BME280;10959;51.328;7.322;2023-06-04T11:52:22;72979.34;;;-147.06;26.29
21594;BME280;10959;51.328;7.322;2023-06-04T11:54:49;73024.41;;;-147.06;26.59
21594;BME280;10959;51.328;7.322;2023-06-04T11:57:15;72991.63;;;-147.06;27.53
21594;BME280;10959;51.328;7.322;2023-06-04T11:59:42;72958.88;;;-147.06;26.79
21594;BME280;10959;51.328;7.322;2023-06-04T12:02:09;72919.97;;;-147.06;27.24
21594;BME280;10959;51.328;7.322;2023-06-04T12:04:35;72934.28;;;-147.06;26.06
21594;BME280;10959;51.328;7.322;2023-06-04T12:07:02;72936.34;;;-147.06;26.75
21594;BME280;10959;51.328;7.322;2023-06-04T12:09:32;72926.09;;;-147.06;26.43
21594;BME280;10959;51.328;7.322;2023-06-04T12:12:01;72889.25;;;-147.06;26.88
21594;BME280;10959;51.328;7.322;2023-06-04T12:14:28;72889.25;;;-147.06;26.77
21594;BME280;10959;51.328;7.322;2023-06-04T12:16:55;72872.84;;;-147.06;26.41
21594;BME280;10959;51.328;7.322;2023-06-04T12:19:22;72881.03;;;-147.06;26.93
21594;BME280;10959;51.328;7.322;2023-06-04T12:21:59;72876.94;;;-147.06;26.63
21594;BME280;10959;51.328;7.322;2023-06-04T12:24:26;72919.97;;;-147.06;26.39
21594;BME280;10959;51.328;7.322;2023-06-04T12:27:02;72991.63;;;-147.06;26.90
21594;BME280;10959;51.328;7.322;2023-06-04T12:29:29;72946.59;;;-147.06;27.41
21594;BME280;10959;51.328;7.322;2023-06-04T12:32:02;72922.00;;;-147.06;27.51
21594;BME280;10959;51.328;7.322;2023-06-04T12:34:28;72909.72;;;-147.06;26.96
21594;BME280;10959;51.328;7.322;2023-06-04T12:36:56;72917.91;;;-147.06;26.77
21594;BME280;10959;51.328;7.322;2023-06-04T12:39:23;72948.63;;;-147.06;26.95
21594;BME280;10959;51.328;7.322;2023-06-04T12:41:49;72967.06;;;-147.06;27.16
21594;BME280;10959;51.328;7.322;2023-06-04T12:44:17;72999.84;;;-147.06;26.94
21594;BME280;10959;51.328;7.322;2023-06-04T12:46:44;73016.22;;;-147.06;27.15
21594;BME280;10959;51.328;7.322;2023-06-04T12:49:10;72997.78;;;-147.06;27.10
21594;BME280;10959;51.328;7.322;2023-06-04T12:51:37;72967.06;;;-147.06;27.03
21594;BME280;10959;51.328;7.322;2023-06-04T12:54:04;72942.50;;;-147.06;27.21
21594;BME280;10959;51.328;7.322;2023-06-04T12:56:30;72946.59;;;-147.06;27.21
21594;BME280;10959;51.328;7.322;2023-06-04T12:58:57;72946.59;;;-147.06;27.24
21594;BME280;10959;51.328;7.322;2023-06-04T13:01:25;72934.28;;;-147.06;27.21
21594;BME280;10959;51.328;7.322;2023-06-04T13:03:51;72969.09;;;-147.06;26.96
21594;BME280;10959;51.328;7.322;2023-06-04T13:06:18;73016.22;;;-147.06;27.26
21594;BME280;10959;51.328;7.322;2023-06-04T13:08:44;73003.94;;;-147.06;26.91
21594;BME280;10959;51.328;7.322;2023-06-04T13:11:11;73020.31;;;-147.06;27.52
21594;BME280;10959;51.328;7.322;2023-06-04T13:13:38;73012.13;;;-147.06;27.41
21594;BME280;10959;51.328;7.322;2023-06-04T13:16:05;73055.13;;;-147.06;27.01
21594;BME280;10959;51.328;7.322;2023-06-04T13:18:33;73089.94;;;-147.06;27.72
21594;BME280;10959;51.328;7.322;2023-06-04T13:21:00;73135.00;;;-147.06;27.55
21594;BME280;10959;51.328;7.322;2023-06-04T13:23:27;73139.09;;;-147.06;28.00
21594;BME280;10959;51.328;7.322;2023-06-04T13:25:53;73161.63;;;-147.06;28.04
21594;BME280;10959;51.328;7.322;2023-06-04T13:28:20;73116.56;;;-147.06;27.88
21594;BME280;10959;51.328;7.322;2023-06-04T13:30:46;73110.44;;;-147.06;28.23
21594;BME280;10959;51.328;7.322;2023-06-04T13:33:13;73081.75;;;-147.06;27.58
21594;BME280;10959;51.328;7.322;2023-06-04T13:35:41;73089.94;;;-147.06;27.19
21594;BME280;10959;51.328;7.322;2023-06-04T13:38:09;73122.72;;;-147.06;27.69
21594;BME280;10959;51.328;7.322;2023-06-04T13:40:37;73122.72;;;-147.06;27.81
21594;BME280;10959;51.328;7.322;2023-06-04T13:43:04;73065.38;;;-147.06;27.83
21594;BME280;10959;51.328;7.322;2023-06-04T13:45:30;73032.59;;;-147.06;27.82
21594;BME280;10959;51.328;7.322;2023-06-04T13:47:57;73020.31;;;-147.06;27.57
21594;BME280;10959;51.328;7.322;2023-06-04T13:50:27;73012.13;;;-147.06;27.67
21594;BME280;10959;51.328;7.322;2023-06-04T13:52:55;73005.97;;;-147.06;27.29
21594;BME280;10959;51.328;7.322;2023-06-04T13:55:22;72989.59;;;-147.06;26.58
21594;BME280;10959;51.328;7.322;2023-06-04T13:57:48;73008.03;;;-147.06;26.96
21594;BME280;10959;51.328;7.322;2023-06-04T14:00:16;73008.03;;;-147.06;26.97
21594;BME280;10959;51.328;7.322;2023-06-04T14:02:42;73028.50;;;-147.06;26.55
21594;BME280;10959;51.328;7.322;2023-06-04T14:05:09;73065.38;;;-147.06;26.77
21594;BME280;10959;51.328;7.322;2023-06-04T14:07:35;73061.28;;;-147.06;27.05
21594;BME280;10959;51.328;7.322;2023-06-04T14:10:04;73044.88;;;-147.06;27.05
21594;BME280;10959;51.328;7.322;2023-06-04T14:12:31;73067.41;;;-147.06;26.63
21594;BME280;10959;51.328;7.322;2023-06-04T14:14:57;73057.19;;;-147.06;27.55
21594;BME280;10959;51.328;7.322;2023-06-04T14:17:24;73094.03;;;-147.06;26.58
21594;BME280;10959;51.328;7.322;2023-06-04T14:19:50;73143.19;;;-147.06;26.70
21594;BME280;10959;51.328;7.322;2023-06-04T14:22:17;73126.81;;;-147.06;27.32
21594;BME280;10959;51.328;7.322;2023-06-04T14:24:43;73102.22;;;-147.06;27.06
21594;BME280;10959;51.328;7.322;2023-06-04T14:27:11;73110.44;;;-147.06;26.46
21594;BME280;10959;51.328;7.322;2023-06-04T14:29:38;73112.47;;;-147.06;26.10
21594;BME280;10959;51.328;7.322;2023-06-04T14:32:05;73118.63;;;-147.06;26.97
21594;BME280;10959;51.328;7.322;2023-06-04T14:34:31;73126.81;;;-147.06;26.22
21594;BME280;10959;51.328;7.322;2023-06-04T14:36:58;73114.53;;;-147.06;26.52
21594;BME280;10959;51.328;7.322;2023-06-04T14:39:25;73122.72;;;-147.06;26.76
21594;BME280;10959;51.328;7.322;2023-06-04T14:41:51;73167.78;;;-147.06;26.24
21594;BME280;10959;51.328;7.322;2023-06-04T14:44:20;73167.78;;;-147.06;26.96
21594;BME280;10959;51.328;7.322;2023-06-04T14:46:48;73169.81;;;-147.06;26.45
21594;BME280;10959;51.328;7.322;2023-06-04T14:49:14;73167.78;;;-147.06;27.19
21594;BME280;10959;51.328;7.322;2023-06-04T14:51:41;73139.09;;;-147.06;26.88
21594;BME280;10959;51.328;7.322;2023-06-04T14:54:07;73145.25;;;-147.06;26.61
21594;BME280;10959;51.328;7.322;2023-06-04T14:56:33;73157.53;;;-147.06;26.85
21594;BME280;10959;51.328;7.322;2023-06-04T14:59:00;73188.25;;;-147.06;26.63
21594;BME280;10959;51.328;7.322;2023-06-04T15:01:28;73196.44;;;-147.06;26.82
21594;BME280;10959;51.328;7.322;2023-06-04T15:03:55;73165.72;;;-147.06;27.15
21594;BME280;10959;51.328;7.322;2023-06-04T15:06:21;73173.91;;;-147.06;26.82
21594;BME280;10959;51.328;7.322;2023-06-04T15:08:48;73147.28;;;-147.06;26.47
21594;BME280;10959;51.328;7.322;2023-06-04T15:11:14;73167.78;;;-147.06;26.53
21594;BME280;10959;51.328;7.322;2023-06-04T15:13:41;73175.97;;;-147.06;26.68
21594;BME280;10959;51.328;7.322;2023-06-04T15:16:07;73171.88;;;-147.06;26.32
21594;BME280;10959;51.328;7.322;2023-06-04T15:18:35;73188.25;;;-147.06;26.67
21594;BME280;10959;51.328;7.322;2023-06-04T15:21:02;73171.88;;;-147.06;26.67
21594;BME280;10959;51.328;7.322;2023-06-04T15:23:28;73173.91;;;-147.06;26.31
21594;BME280;10959;51.328;7.322;2023-06-04T15:25:55;73175.97;;;-147.06;26.67
21594;BME280;10959;51.328;7.322;2023-06-04T15:28:21;73159.59;;;-147.06;26.68
21594;BME280;10959;51.328;7.322;2023-06-04T15:30:48;73159.59;;;-147.06;26.53
21594;BME280;10959;51.328;7.322;2023-06-04T15:33:15;73175.97;;;-147.06;26.51
21594;BME280;10959;51.328;7.322;2023-06-04T15:35:43;73165.72;;;-147.06;26.88
21594;BME280;10959;51.328;7.322;2023-06-04T15:38:10;73143.19;;;-147.06;26.42
21594;BME280;10959;51.328;7.322;2023-06-04T15:40:36;73135.00;;;-147.06;26.55
21594;BME280;10959;51.328;7.322;2023-06-04T15:43:02;73135.00;;;-147.06;26.74
21594;BME280;10959;51.328;7.322;2023-06-04T15:45:29;73139.09;;;-147.06;26.96
21594;BME280;10959;51.328;7.322;2023-06-04T15:47:55;73128.88;;;-147.06;26.96
21594;BME280;10959;51.328;7.322;2023-06-04T15:50:22;73126.81;;;-147.06;26.86
21594;BME280;10959;51.328;7.322;2023-06-04T15:52:50;73139.09;;;-147.06;26.94
21594;BME280;10959;51.328;7.322;2023-06-04T15:55:16;73163.69;;;-147.06;27.09
21594;BME280;10959;51.328;7.322;2023-06-04T15:57:42;73184.16;;;-147.06;26.74
21594;BME280;10959;51.328;7.322;2023-06-04T16:00:10;73167.78;;;-147.06;27.20
21594;BME280;10959;51.328;7.322;2023-06-04T16:02:36;73180.06;;;-147.06;26.48
21594;BME280;10959;51.328;7.322;2023-06-04T16:05:03;73167.78;;;-147.06;26.51
21594;BME280;10959;51.328;7.322;2023-06-04T16:07:30;73175.97;;;-147.06;26.41
21594;BME280;10959;51.328;7.322;2023-06-04T16:09:58;73151.38;;;-147.06;26.19
21594;BME280;10959;51.328;7.322;2023-06-04T16:12:24;73163.69;;;-147.06;26.22
21594;BME280;10959;51.328;7.322;2023-06-04T16:14:50;73171.88;;;-147.06;26.64
21594;BME280;10959;51.328;7.322;2023-06-04T16:17:17;73155.50;;;-147.06;26.84
21594;BME280;10959;51.328;7.322;2023-06-04T16:19:44;73135.00;;;-147.06;27.06
21594;BME280;10959;51.328;7.322;2023-06-04T16:22:10;73153.44;;;-147.06;26.36
21594;BME280;10959;51.328;7.322;2023-06-04T16:24:37;73147.28;;;-147.06;26.66
21594;BME280;10959;51.328;7.322;2023-06-04T16:27:04;73182.13;;;-147.06;26.44
21594;BME280;10959;51.328;7.322;2023-06-04T16:29:31;73188.25;;;-147.06;26.41
21594;BME280;10959;51.328;7.322;2023-06-04T16:31:57;73175.97;;;-147.06;26.51
21594;BME280;10959;51.328;7.322;2023-06-04T16:34:24;73196.44;;;-147.06;26.32
21594;BME280;10959;51.328;7.322;2023-06-04T16:36:50;73196.44;;;-147.06;26.66
21594;BME280;10959;51.328;7.322;2023-06-04T16:39:17;73204.66;;;-147.06;26.86
21594;BME280;10959;51.328;7.322;2023-06-04T16:41:43;73208.75;;;-147.06;26.73
21594;BME280;10959;51.328;7.322;2023-06-04T16:44:11;73212.84;;;-147.06;26.92
21594;BME280;10959;51.328;7.322;2023-06-04T16:46:37;73212.84;;;-147.06;26.82
21594;BME280;10959;51.328;7.322;2023-06-04T16:49:04;73200.53;;;-147.06;26.88
21594;BME280;10959;51.328;7.322;2023-06-04T16:51:30;73208.75;;;-147.06;26.91
21594;BME280;10959;51.328;7.322;2023-06-04T16:53:57;73204.66;;;-147.06;26.88
21594;BME280;10959;51.328;7.322;2023-06-04T16:56:23;73196.44;;;-147.06;27.02
21594;BME280;10959;51.328;7.322;2023-06-04T16:58:50;73184.16;;;-147.06;26.88
21594;BME280;10959;51.328;7.322;2023-06-04T17:01:18;73188.25;;;-147.06;26.83
21594;BME280;10959;51.328;7.322;2023-06-04T17:03:44;73200.53;;;-147.06;26.80
21594;BME280;10959;51.328;7.322;2023-06-04T17:06:11;73221.03;;;-147.06;26.55
21594;BME280;10959;51.328;7.322;2023-06-04T17:08:37;73233.31;;;-147.06;26.91
21594;BME280;10959;51.328;7.322;2023-06-04T17:11:04;73233.31;;;-147.06;27.10
21594;BME280;10959;51.328;7.322;2023-06-04T17:13:30;73212.84;;;-147.06;27.13
21594;BME280;10959;51.328;7.322;2023-06-04T17:15:56;73204.66;;;-147.06;27.09
21594;BME280;10959;51.328;7.322;2023-06-04T17:18:24;73221.03;;;-147.06;26.85
21594;BME280;10959;51.328;7.322;2023-06-04T17:20:51;73208.75;;;-147.06;27.17
21594;BME280;10959;51.328;7.322;2023-06-04T17:23:21;73204.66;;;-147.06;27.02
21594;BME280;10959;51.328;7.322;2023-06-04T17:25:47;73200.53;;;-147.06;27.29
21594;BME280;10959;51.328;7.322;2023-06-04T17:28:14;73229.22;;;-147.06;26.88
21594;BME280;10959;51.328;7.322;2023-06-04T17:30:41;73216.94;;;-147.06;27.43
21594;BME280;10959;51.328;7.322;2023-06-04T17:33:07;73233.31;;;-147.06;27.30
21594;BME280;10959;51.328;7.322;2023-06-04T17:35:36;73229.22;;;-147.06;27.31
21594;BME280;10959;51.328;7.322;2023-06-04T17:38:03;73233.31;;;-147.06;27.80
21594;BME280;10959;51.328;7.322;2023-06-04T17:40:30;73239.47;;;-147.06;27.46
21594;BME280;10959;51.328;7.322;2023-06-04T17:42:56;73233.31;;;-147.06;27.81
21594;BME280;10959;51.328;7.322;2023-06-04T17:45:23;73208.75;;;-147.06;27.88
21594;BME280;10959;51.328;7.322;2023-06-04T17:47:49;73212.84;;;-147.06;27.58
21594;BME280;10959;51.328;7.322;2023-06-04T17:50:16;73208.75;;;-147.06;27.85
21594;BME280;10959;51.328;7.322;2023-06-04T17:52:43;73227.16;;;-147.06;27.80
21594;BME280;10959;51.328;7.322;2023-06-04T17:55:12;73253.78;;;-147.06;27.89
21594;BME280;10959;51.328;7.322;2023-06-04T17:57:38;73253.78;;;-147.06;27.85
21594;BME280;10959;51.328;7.322;2023-06-04T18:00:06;73278.38;;;-147.06;28.00
21594;BME280;10959;51.328;7.322;2023-06-04T18:02:32;73274.28;;;-147.06;28.09
21594;BME280;10959;51.328;7.322;2023-06-04T18:04:59;73311.16;;;-147.06;28.18
21594;BME280;10959;51.328;7.322;2023-06-04T18:07:25;73311.16;;;-147.06;28.31
21594;BME280;10959;51.328;7.322;2023-06-04T18:09:53;73298.84;;;-147.06;28.39
21594;BME280;10959;51.328;7.322;2023-06-04T18:12:20;73298.84;;;-147.06;28.54
21594;BME280;10959;51.328;7.322;2023-06-04T18:14:46;73296.81;;;-147.06;28.40
21594;BME280;10959;51.328;7.322;2023-06-04T18:17:13;73294.75;;;-147.06;28.49
21594;BME280;10959;51.328;7.322;2023-06-04T18:19:39;73300.91;;;-147.06;28.49
21594;BME280;10959;51.328;7.322;2023-06-04T18:22:06;73319.34;;;-147.06;28.77
21594;BME280;10959;51.328;7.322;2023-06-04T18:24:32;73343.91;;;-147.06;28.72
21594;BME280;10959;51.328;7.322;2023-06-04T18:27:00;73348.00;;;-147.06;28.95
21594;BME280;10959;51.328;7.322;2023-06-04T18:29:27;73356.22;;;-147.06;29.05
21594;BME280;10959;51.328;7.322;2023-06-04T18:31:54;73356.22;;;-147.06;29.17
21594;BME280;10959;51.328;7.322;2023-06-04T18:34:20;73356.22;;;-147.06;28.96
21594;BME280;10959;51.328;7.322;2023-06-04T18:36:47;73360.31;;;-147.06;29.20
21594;BME280;10959;51.328;7.322;2023-06-04T18:39:18;73376.69;;;-147.06;29.29
21594;BME280;10959;51.328;7.322;2023-06-04T18:41:46;73356.22;;;-147.06;29.23
21594;BME280;10959;51.328;7.322;2023-06-04T18:44:14;73348.00;;;-147.06;29.25
21594;BME280;10959;51.328;7.322;2023-06-04T18:46:40;73364.41;;;-147.06;29.34
21594;BME280;10959;51.328;7.322;2023-06-04T18:49:07;73372.59;;;-147.06;29.29
21594;BME280;10959;51.328;7.322;2023-06-04T18:51:33;73380.78;;;-147.06;29.48
21594;BME280;10959;51.328;7.322;2023-06-04T18:54:01;73395.13;;;-147.06;29.46
21594;BME280;10959;51.328;7.322;2023-06-04T18:56:27;73413.56;;;-147.06;29.41
21594;BME280;10959;51.328;7.322;2023-06-04T18:58:54;73395.13;;;-147.06;29.36
21594;BME280;10959;51.328;7.322;2023-06-04T19:01:22;73405.38;;;-147.06;29.29
21594;BME280;10959;51.328;7.322;2023-06-04T19:03:49;73405.38;;;-147.06;29.48
21594;BME280;10959;51.328;7.322;2023-06-04T19:06:16;73407.41;;;-147.06;29.51
21594;BME280;10959;51.328;7.322;2023-06-04T19:08:43;73413.56;;;-147.06;29.59
21594;BME280;10959;51.328;7.322;2023-06-04T19:11:09;73409.47;;;-147.06;29.43
21594;BME280;10959;51.328;7.322;2023-06-04T19:13:36;73413.56;;;-147.06;29.54
21594;BME280;10959;51.328;7.322;2023-06-04T19:16:02;73409.47;;;-147.06;29.70
21594;BME280;10959;51.328;7.322;2023-06-04T19:18:30;73405.38;;;-147.06;29.77
21594;BME280;10959;51.328;7.322;2023-06-04T19:20:57;73401.28;;;-147.06;29.70
21594;BME280;10959;51.328;7.322;2023-06-04T19:23:24;73405.38;;;-147.06;29.88
21594;BME280;10959;51.328;7.322;2023-06-04T19:25:50;73421.75;;;-147.06;30.00
21594;BME280;10959;51.328;7.322;2023-06-04T19:28:17;73438.13;;;-147.06;30.28
21594;BME280;10959;51.328;7.322;2023-06-04T19:30:44;73446.34;;;-147.06;30.31
21594;BME280;10959;51.328;7.322;2023-06-04T19:33:11;73450.44;;;-147.06;30.45
21594;BME280;10959;51.328;7.322;2023-06-04T19:35:39;73450.44;;;-147.06;30.67
21594;BME280;10959;51.328;7.322;2023-06-04T19:38:06;73470.91;;;-147.06;30.72
21594;BME280;10959;51.328;7.322;2023-06-04T19:40:33;73481.16;;;-147.06;30.80
21594;BME280;10959;51.328;7.322;2023-06-04T19:43:00;73485.25;;;-147.06;30.76
21594;BME280;10959;51.328;7.322;2023-06-04T19:45:26;73487.31;;;-147.06;30.83
21594;BME280;10959;51.328;7.322;2023-06-04T19:47:53;73487.31;;;-147.06;30.92
21594;BME280;10959;51.328;7.322;2023-06-04T19:50:20;73503.69;;;-147.06;30.87
21594;BME280;10959;51.328;7.322;2023-06-04T19:52:48;73499.59;;;-147.06;31.12
21594;BME280;10959;51.328;7.322;2023-06-04T19:55:14;73511.88;;;-147.06;31.15
21594;BME280;10959;51.328;7.322;2023-06-04T19:57:41;73528.25;;;-147.06;31.22
21594;BME280;10959;51.328;7.322;2023-06-04T20:00:09;73540.56;;;-147.06;31.29
21594;BME280;10959;51.328;7.322;2023-06-04T20:02:35;73550.78;;;-147.06;31.44
21594;BME280;10959;51.328;7.322;2023-06-04T20:05:02;73546.69;;;-147.06;31.70
21594;BME280;10959;51.328;7.322;2023-06-04T20:07:29;73561.03;;;-147.06;31.59
21594;BME280;10959;51.328;7.322;2023-06-04T20:10:00;73556.94;;;-147.06;31.79
21594;BME280;10959;51.328;7.322;2023-06-04T20:12:28;73561.03;;;-147.06;31.56
21594;BME280;10959;51.328;7.322;2023-06-04T20:14:54;73552.84;;;-147.06;31.56
21594;BME280;10959;51.328;7.322;2023-06-04T20:17:21;73552.84;;;-147.06;31.51
21594;BME280;10959;51.328;7.322;2023-06-04T20:19:48;73556.94;;;-147.06;31.93
21594;BME280;10959;51.328;7.322;2023-06-04T20:22:14;73561.03;;;-147.06;31.72
21594;BME280;10959;51.328;7.322;2023-06-04T20:24:41;73565.13;;;-147.06;31.93
21594;BME280;10959;51.328;7.322;2023-06-04T20:27:09;73561.03;;;-147.06;31.91
21594;BME280;10959;51.328;7.322;2023-06-04T20:29:36;73577.44;;;-147.06;31.96
21594;BME280;10959;51.328;7.322;2023-06-04T20:32:03;73593.81;;;-147.06;32.13
21594;BME280;10959;51.328;7.322;2023-06-04T20:34:30;73604.06;;;-147.06;32.13
21594;BME280;10959;51.328;7.322;2023-06-04T20:36:56;73612.25;;;-147.06;32.05
21594;BME280;10959;51.328;7.322;2023-06-04T20:39:27;73622.50;;;-147.06;32.28
21594;BME280;10959;51.328;7.322;2023-06-04T20:41:55;73614.28;;;-147.06;32.09
21594;BME280;10959;51.328;7.322;2023-06-04T20:44:23;73618.41;;;-147.06;32.16
21594;BME280;10959;51.328;7.322;2023-06-04T20:46:50;73626.59;;;-147.06;32.28
21594;BME280;10959;51.328;7.322;2023-06-04T20:49:17;73628.63;;;-147.06;32.03
21594;BME280;10959;51.328;7.322;2023-06-04T20:51:43;73647.06;;;-147.06;32.10
21594;BME280;10959;51.328;7.322;2023-06-04T20:54:10;73651.16;;;-147.06;32.19
21594;BME280;10959;51.328;7.322;2023-06-04T20:56:38;73659.34;;;-147.06;32.32
21594;BME280;10959;51.328;7.322;2023-06-04T20:59:04;73663.47;;;-147.06;32.26
21594;BME280;10959;51.328;7.322;2023-06-04T21:01:32;73663.47;;;-147.06;32.22
21594;BME280;10959;51.328;7.322;2023-06-04T21:03:59;73667.56;;;-147.06;32.43
21594;BME280;10959;51.328;7.322;2023-06-04T21:06:26;73667.56;;;-147.06;32.38
21594;BME280;10959;51.328;7.322;2023-06-04T21:08:53;73665.50;;;-147.06;32.46
21594;BME280;10959;51.328;7.322;2023-06-04T21:11:19;73675.75;;;-147.06;32.47
21594;BME280;10959;51.328;7.322;2023-06-04T21:13:46;73671.66;;;-147.06;32.43
21594;BME280;10959;51.328;7.322;2023-06-04T21:16:12;73692.13;;;-147.06;32.48
21594;BME280;10959;51.328;7.322;2023-06-04T21:18:40;73696.22;;;-147.06;32.83
21594;BME280;10959;51.328;7.322;2023-06-04T21:21:06;73700.31;;;-147.06;32.87
21594;BME280;10959;51.328;7.322;2023-06-04T21:23:33;73700.31;;;-147.06;32.85
21594;BME280;10959;51.328;7.322;2023-06-04T21:26:00;73706.47;;;-147.06;32.90
21594;BME280;10959;51.328;7.322;2023-06-04T21:28:26;73716.72;;;-147.06;32.75
21594;BME280;10959;51.328;7.322;2023-06-04T21:30:52;73720.81;;;-147.06;32.88
21594;BME280;10959;51.328;7.322;2023-06-04T21:33:19;73735.16;;;-147.06;33.02
21594;BME280;10959;51.328;7.322;2023-06-04T21:35:47;73741.28;;;-147.06;32.81
21594;BME280;10959;51.328;7.322;2023-06-04T21:38:13;73745.41;;;-147.06;33.00
21594;BME280;10959;51.328;7.322;2023-06-04T21:40:40;73757.69;;;-147.06;33.05
21594;BME280;10959;51.328;7.322;2023-06-04T21:43:06;73749.50;;;-147.06;33.04
21594;BME280;10959;51.328;7.322;2023-06-04T21:45:32;73749.50;;;-147.06;32.96
21594;BME280;10959;51.328;7.322;2023-06-04T21:47:59;73757.69;;;-147.06;33.18
21594;BME280;10959;51.328;7.322;2023-06-04T21:50:25;73761.78;;;-147.06;32.93
21594;BME280;10959;51.328;7.322;2023-06-04T21:52:53;73765.88;;;-147.06;33.10
21594;BME280;10959;51.328;7.322;2023-06-04T21:55:20;73765.88;;;-147.06;33.36
21594;BME280;10959;51.328;7.322;2023-06-04T21:57:46;73776.13;;;-147.06;33.45